createdAt,value
2022-11-29T00:00:22.426Z,11.02
2022-11-29T00:03:25.694Z,7.28
2022-11-29T00:06:31.048Z,18.02
2022-11-29T00:09:33.224Z,6.47
2022-11-29T00:12:35.398Z,6.35
2022-11-29T00:15:38.644Z,6.55
2022-11-29T00:18:40.787Z,5.82
2022-11-29T00:21:42.963Z,6.22
2022-11-29T00:24:45.351Z,5.00
2022-11-29T00:27:47.655Z,5.68
2022-11-29T00:30:49.926Z,2.95
2022-11-29T00:33:52.706Z,8.93
2022-11-29T00:36:54.917Z,5.65
2022-11-29T00:39:57.201Z,5.70
2022-11-29T00:42:59.357Z,3.35
2022-11-29T00:46:02.153Z,2.97
2022-11-29T00:49:04.993Z,5.28
2022-11-29T00:52:07.140Z,4.25
2022-11-29T00:55:09.585Z,6.28
2022-11-29T00:58:11.811Z,4.47
2022-11-29T01:01:14.171Z,6.00
2022-11-29T01:04:16.499Z,4.45
2022-11-29T01:07:18.758Z,9.93
2022-11-29T01:10:20.965Z,6.87
2022-11-29T01:13:23.111Z,4.30
2022-11-29T01:16:26.179Z,5.28
2022-11-29T01:19:28.436Z,7.05
2022-11-29T01:22:30.619Z,4.90
2022-11-29T01:25:32.820Z,5.72
2022-11-29T01:28:35.891Z,4.62
2022-11-29T01:31:38.194Z,9.40
2022-11-29T01:34:40.587Z,7.53
2022-11-29T01:37:42.893Z,5.78
2022-11-29T01:40:45.622Z,4.57
2022-11-29T01:44:13.827Z,3.72
2022-11-29T01:47:16.967Z,5.03
2022-11-29T01:50:19.444Z,4.35
2022-11-29T01:53:22.343Z,6.32
2022-11-29T01:56:25.365Z,5.50
2022-11-29T01:59:29.366Z,4.68
2022-11-29T02:02:35.928Z,5.03
2022-11-29T02:05:45.565Z,2.22
2022-11-29T02:08:47.845Z,8.15
2022-11-29T02:12:27.388Z,5.18
2022-11-29T02:15:38.479Z,4.32
2022-11-29T02:19:07.100Z,3.00
2022-11-29T02:22:16.329Z,4.05
2022-11-29T02:25:38.685Z,2.42
2022-11-29T02:29:08.575Z,3.53
2022-11-29T02:32:41.220Z,5.85
2022-11-29T02:36:14.163Z,3.72
2022-11-29T02:39:46.761Z,3.35
2022-11-29T02:43:13.133Z,4.40
2022-11-29T02:46:39.780Z,9.52
2022-11-29T02:49:59.058Z,3.00
2022-11-29T02:53:04.199Z,2.62
2022-11-29T02:56:24.902Z,4.32
2022-11-29T02:59:45.166Z,6.80
2022-11-29T03:03:14.612Z,4.75
2022-11-29T03:06:28.812Z,3.08
2022-11-29T03:09:45.453Z,4.10
2022-11-29T03:12:49.941Z,2.65
2022-11-29T03:16:37.099Z,4.90
2022-11-29T03:19:55.783Z,3.65
2022-11-29T03:23:09.985Z,2.55
2022-11-29T03:26:19.479Z,2.78
2022-11-29T03:29:27.110Z,5.22
2022-11-29T03:32:39.608Z,4.65
2022-11-29T03:35:55.659Z,4.80
2022-11-29T03:39:03.813Z,2.30
2022-11-29T03:42:13.266Z,4.10
2022-11-29T03:45:30.148Z,3.42
2022-11-29T03:48:36.978Z,6.37
2022-11-29T03:52:07.073Z,5.35
2022-11-29T03:55:09.248Z,2.90
2022-11-29T03:58:38.795Z,5.50
2022-11-29T04:02:09.442Z,3.45
2022-11-29T04:05:47.663Z,3.58
2022-11-29T04:09:20.458Z,2.95
2022-11-29T04:12:34.710Z,4.37
2022-11-29T04:15:49.084Z,5.93
2022-11-29T04:19:15.170Z,5.50
2022-11-29T04:22:25.039Z,8.55
2022-11-29T04:25:58.657Z,3.12
2022-11-29T04:29:12.534Z,3.25
2022-11-29T04:32:39.695Z,2.85
2022-11-29T04:36:39.455Z,4.05
2022-11-29T04:39:47.476Z,7.62
2022-11-29T04:43:01.095Z,2.75
2022-11-29T04:46:15.103Z,5.43
2022-11-29T04:49:23.168Z,3.22
2022-11-29T04:53:16.530Z,5.47
2022-11-29T04:56:40.228Z,8.48
2022-11-29T04:59:52.645Z,2.70
2022-11-29T05:03:00.473Z,19.30
2022-11-29T05:06:44.628Z,5.78
2022-11-29T05:10:24.115Z,6.40
2022-11-29T05:13:49.123Z,7.72
2022-11-29T05:17:17.476Z,2.30
2022-11-29T05:20:39.043Z,4.45
2022-11-29T05:23:59.175Z,5.72
2022-11-29T05:31:09.549Z,3.62
2022-11-29T05:34:22.614Z,8.73
2022-11-29T05:37:51.667Z,3.12
2022-11-29T05:41:06.225Z,5.97
2022-11-29T05:44:46.795Z,8.80
2022-11-29T05:47:54.788Z,4.05
2022-11-29T05:51:03.051Z,8.40
2022-11-29T05:54:30.159Z,4.90
2022-11-29T05:57:50.073Z,2.85
2022-11-29T06:00:54.308Z,3.17
2022-11-29T06:04:14.980Z,8.68
2022-11-29T06:07:32.316Z,5.57
2022-11-29T06:10:39.960Z,5.90
2022-11-29T06:13:49.846Z,4.03
2022-11-29T06:16:58.133Z,10.23
2022-11-29T06:20:10.994Z,3.80
2022-11-29T06:23:28.966Z,6.20
2022-11-29T06:26:39.933Z,4.87
2022-11-29T06:29:52.664Z,6.90
2022-11-29T06:33:15.162Z,4.10
2022-11-29T06:36:29.705Z,6.45
2022-11-29T06:39:32.212Z,5.50
2022-11-29T06:42:34.394Z,3.37
2022-11-29T06:45:37.084Z,4.18
2022-11-29T06:48:45.612Z,7.30
2022-11-29T06:51:56.506Z,8.75
2022-11-29T06:55:36.269Z,3.50
2022-11-29T06:59:00.197Z,3.40
2022-11-29T07:02:21.258Z,2.67
2022-11-29T07:05:30.398Z,20.60
2022-11-29T07:08:32.936Z,4.62
2022-11-29T07:11:35.438Z,6.00
2022-11-29T07:14:37.865Z,4.93
2022-11-29T07:17:53.242Z,7.28
2022-11-29T07:21:01.435Z,4.85
2022-11-29T07:24:06.948Z,5.45
2022-11-29T07:27:21.106Z,5.25
2022-11-29T07:30:47.553Z,3.15
2022-11-29T07:33:55.392Z,4.65
2022-11-29T07:37:04.973Z,8.77
2022-11-29T07:40:23.779Z,6.82
2022-11-29T07:43:35.580Z,5.62
2022-11-29T07:46:37.792Z,9.90
2022-11-29T07:49:39.986Z,4.75
2022-11-29T07:52:42.187Z,5.12
2022-11-29T07:55:44.703Z,5.90
2022-11-29T07:58:47.040Z,5.03
2022-11-29T08:01:49.302Z,10.10
2022-11-29T08:04:51.958Z,8.45
2022-11-29T08:07:55.944Z,9.68
2022-11-29T08:10:58.240Z,6.12
2022-11-29T08:14:02.002Z,10.70
2022-11-29T08:17:04.211Z,3.87
2022-11-29T08:20:07.580Z,11.12
2022-11-29T08:23:12.737Z,10.15
2022-11-29T08:26:15.945Z,5.93
2022-11-29T08:29:18.289Z,4.30
2022-11-29T08:32:20.497Z,9.82
2022-11-29T08:35:23.311Z,29.95
2022-11-29T08:38:25.447Z,10.30
2022-11-29T08:41:27.620Z,12.45
2022-11-29T08:44:29.763Z,8.57
2022-11-29T08:47:38.516Z,6.22
2022-11-29T08:50:40.670Z,7.72
2022-11-29T08:53:43.111Z,7.62
2022-11-29T08:57:31.376Z,6.53
2022-11-29T09:00:08.272Z,12.05
2022-11-29T09:03:29.095Z,6.50
2022-11-29T09:06:33.717Z,6.80
2022-11-29T09:09:35.880Z,8.18
2022-11-29T09:12:39.504Z,10.00
2022-11-29T09:15:43.465Z,6.90
2022-11-29T09:18:51.361Z,7.60
2022-11-29T09:21:54.212Z,6.70
2022-11-29T09:24:56.407Z,17.90
2022-11-29T09:28:01.871Z,7.65
2022-11-29T09:31:09.708Z,6.10
2022-11-29T09:34:16.195Z,4.68
2022-11-29T09:37:18.377Z,7.55
2022-11-29T09:40:27.922Z,8.57
2022-11-29T09:43:45.635Z,14.43
2022-11-29T09:46:47.777Z,6.68
2022-11-29T09:50:04.165Z,11.90
2022-11-29T09:53:31.018Z,5.55
2022-11-29T09:56:44.538Z,16.42
2022-11-29T09:59:49.555Z,2.15
2022-11-29T10:02:58.767Z,11.02
2022-11-29T10:06:23.457Z,9.02
2022-11-29T10:09:41.044Z,5.70
2022-11-29T10:12:53.573Z,9.23
2022-11-29T10:16:11.016Z,6.90
2022-11-29T10:19:27.336Z,8.57
2022-11-29T10:22:53.337Z,12.02
2022-11-29T10:25:57.667Z,8.82
2022-11-29T10:29:00.087Z,9.80
2022-11-29T10:32:10.134Z,15.90
2022-11-29T10:35:19.133Z,8.63
2022-11-29T10:38:36.541Z,7.97
2022-11-29T10:41:38.776Z,23.17
2022-11-29T10:44:40.956Z,12.15
2022-11-29T10:47:44.599Z,8.02
2022-11-29T10:50:48.840Z,11.68
2022-11-29T10:53:52.869Z,10.02
2022-11-29T10:56:57.719Z,5.12
2022-11-29T11:00:12.222Z,9.27
2022-11-29T11:03:27.511Z,15.38
2022-11-29T11:06:48.598Z,9.63
2022-11-29T11:09:53.249Z,11.15
2022-11-29T11:13:08.133Z,14.43
2022-11-29T11:16:19.642Z,11.12
2022-11-29T11:22:25.208Z,13.85
2022-11-29T11:25:35.395Z,13.75
2022-11-29T11:28:51.046Z,8.23
2022-11-29T11:31:57.127Z,16.67
2022-11-29T11:35:01.536Z,15.20
2022-11-29T11:38:03.783Z,19.67
2022-11-29T11:41:19.576Z,12.35
2022-11-29T11:44:50.461Z,16.65
2022-11-29T11:47:55.270Z,13.53
2022-11-29T11:50:59.689Z,17.35
2022-11-29T11:54:02.059Z,18.02
2022-11-29T11:57:04.266Z,18.33
2022-11-29T12:00:07.537Z,13.45
2022-11-29T12:03:26.724Z,13.35
2022-11-29T12:06:30.545Z,12.40
2022-11-29T12:09:49.274Z,16.00
2022-11-29T12:12:52.335Z,11.68
2022-11-29T12:15:55.189Z,9.15
2022-11-29T12:19:15.105Z,11.88
2022-11-29T12:22:22.925Z,12.85
2022-11-29T12:25:32.693Z,20.48
2022-11-29T12:28:39.090Z,12.13
2022-11-29T12:31:52.532Z,33.90
2022-11-29T12:35:29.384Z,29.90
2022-11-29T12:38:38.836Z,12.02
2022-11-29T12:42:26.063Z,11.00
2022-11-29T12:45:49.246Z,13.93
2022-11-29T12:49:01.402Z,12.52
2022-11-29T12:52:36.065Z,6.03
2022-11-29T12:55:42.683Z,9.55
2022-11-29T12:59:13.490Z,11.90
2022-11-29T13:02:37.656Z,13.50
2022-11-29T13:05:45.587Z,6.10
2022-11-29T13:08:59.692Z,10.55
2022-11-29T13:12:27.568Z,16.55
2022-11-29T13:15:38.471Z,12.43
2022-11-29T13:18:59.169Z,9.35
2022-11-29T13:22:26.124Z,10.68
2022-11-29T13:25:32.634Z,12.25
2022-11-29T13:28:37.561Z,10.75
2022-11-29T13:31:40.327Z,10.75
2022-11-29T13:34:45.928Z,10.52
2022-11-29T13:37:56.084Z,8.00
2022-11-29T13:41:30.551Z,14.70
2022-11-29T13:44:48.211Z,7.82
2022-11-29T13:47:56.650Z,8.75
2022-11-29T13:50:59.095Z,15.88
2022-11-29T13:54:04.372Z,12.32
2022-11-29T13:57:08.561Z,15.70
2022-11-29T14:00:43.970Z,13.13
2022-11-29T14:03:51.793Z,13.52
2022-11-29T14:07:05.082Z,12.32
2022-11-29T14:10:26.408Z,9.55
2022-11-29T14:13:44.110Z,10.35
2022-11-29T14:16:53.429Z,9.40
2022-11-29T14:20:30.520Z,12.00
2022-11-29T14:23:38.499Z,11.88
2022-11-29T14:26:40.674Z,11.45
2022-11-29T14:29:49.007Z,6.95
2022-11-29T14:33:01.120Z,5.75
2022-11-29T14:36:06.264Z,15.30
2022-11-29T14:39:24.306Z,13.25
2022-11-29T14:42:29.118Z,13.88
2022-11-29T14:45:33.704Z,6.97
2022-11-29T14:48:36.958Z,14.15
2022-11-29T14:51:39.658Z,9.70
2022-11-29T14:55:02.322Z,10.50
2022-11-29T14:58:24.724Z,7.28
2022-11-29T15:01:26.981Z,11.95
2022-11-29T15:04:33.655Z,15.48
2022-11-29T15:07:35.905Z,21.85
2022-11-29T15:10:52.605Z,10.90
2022-11-29T15:14:01.616Z,15.13
2022-11-29T15:17:19.812Z,15.77
2022-11-29T15:20:37.592Z,18.33
2022-11-29T15:23:42.337Z,18.20
2022-11-29T15:26:57.747Z,19.02
2022-11-29T15:30:18.551Z,24.63
2022-11-29T15:33:25.034Z,23.97
2022-11-29T15:36:28.383Z,30.02
2022-11-29T15:39:35.956Z,27.83
2022-11-29T15:42:42.422Z,32.08
2022-11-29T15:45:49.860Z,36.60
2022-11-29T15:48:52.313Z,32.03
2022-11-29T15:51:58.759Z,24.90
2022-11-29T15:55:06.376Z,33.08
2022-11-29T15:58:12.290Z,50.25
2022-11-29T16:01:19.840Z,41.10
2022-11-29T16:04:24.444Z,42.67
2022-11-29T16:07:29.126Z,34.25
2022-11-29T16:10:36.076Z,21.10
2022-11-29T16:13:39.937Z,23.65
2022-11-29T16:16:44.623Z,24.50
2022-11-29T16:19:47.156Z,29.37
2022-11-29T16:23:32.461Z,22.60
2022-11-29T16:26:37.137Z,21.12
2022-11-29T16:29:45.116Z,24.65
2022-11-29T16:32:51.892Z,56.90
2022-11-29T16:36:05.456Z,33.50
2022-11-29T16:39:18.265Z,22.73
2022-11-29T16:42:26.239Z,15.68
2022-11-29T16:45:47.085Z,17.90
2022-11-29T16:48:50.008Z,32.75
2022-11-29T16:51:53.980Z,41.92
2022-11-29T16:54:56.788Z,42.90
2022-11-29T16:57:59.023Z,27.42
2022-11-29T17:01:26.213Z,29.10
2022-11-29T17:04:28.417Z,22.95
2022-11-29T17:07:33.300Z,26.95
2022-11-29T17:10:35.779Z,23.87
2022-11-29T17:13:38.449Z,24.00
2022-11-29T17:16:40.972Z,35.42
2022-11-29T17:19:43.226Z,39.30
2022-11-29T17:22:45.407Z,36.10
2022-11-29T17:26:00.812Z,30.00
2022-11-29T17:29:03.675Z,33.90
2022-11-29T17:32:05.951Z,32.38
2022-11-29T17:35:08.652Z,24.48
2022-11-29T17:38:11.066Z,18.12
2022-11-29T17:41:15.822Z,27.37
2022-11-29T17:44:18.166Z,30.98
2022-11-29T17:47:20.748Z,40.58
2022-11-29T17:50:22.927Z,33.05
2022-11-29T17:53:25.113Z,29.33
2022-11-29T17:56:29.078Z,27.10
2022-11-29T17:59:31.284Z,26.12
2022-11-29T18:02:35.477Z,40.28
2022-11-29T18:05:37.741Z,33.55
2022-11-29T18:08:48.449Z,42.28
2022-11-29T18:11:50.999Z,49.53
2022-11-29T18:14:53.204Z,44.92
2022-11-29T18:17:55.532Z,41.67
2022-11-29T18:20:59.499Z,29.65
2022-11-29T18:24:03.460Z,26.65
2022-11-29T18:27:05.890Z,40.67
2022-11-29T18:30:09.048Z,48.33
2022-11-29T18:33:11.428Z,29.95
2022-11-29T18:36:18.221Z,30.50
2022-11-29T18:39:20.779Z,28.95
2022-11-29T18:42:24.725Z,30.08
2022-11-29T18:45:27.111Z,36.60
2022-11-29T18:48:30.360Z,30.70
2022-11-29T18:51:34.236Z,24.12
2022-11-29T18:54:36.712Z,30.37
2022-11-29T18:57:38.874Z,18.80
2022-11-29T19:00:41.903Z,31.58
2022-11-29T19:03:47.395Z,26.87
2022-11-29T19:06:51.012Z,36.83
2022-11-29T19:09:53.483Z,40.90
2022-11-29T19:12:56.021Z,40.58
2022-11-29T19:15:58.374Z,32.58
2022-11-29T19:19:01.587Z,27.85
2022-11-29T19:22:04.053Z,24.85
2022-11-29T19:25:07.362Z,25.35
2022-11-29T19:28:14.081Z,29.45
2022-11-29T19:31:18.886Z,36.65
2022-11-29T19:34:21.436Z,43.87
2022-11-29T19:37:23.581Z,45.63
2022-11-29T19:40:26.052Z,50.03
2022-11-29T19:43:28.464Z,48.08
2022-11-29T19:46:34.083Z,60.12
2022-11-29T19:49:37.008Z,39.55
2022-11-29T19:52:39.541Z,37.70
2022-11-29T19:55:43.998Z,28.80
2022-11-29T19:58:47.237Z,27.05
2022-11-29T20:01:49.781Z,27.10
2022-11-29T20:04:52.254Z,26.70
2022-11-29T20:07:54.667Z,34.78
2022-11-29T20:11:05.175Z,32.20
2022-11-29T20:14:08.253Z,18.15
2022-11-29T20:17:10.649Z,25.95
2022-11-29T20:20:13.452Z,21.08
2022-11-29T20:23:16.976Z,17.42
2022-11-29T20:26:20.864Z,24.90
2022-11-29T20:29:27.157Z,21.20
2022-11-29T20:32:29.686Z,14.57
2022-11-29T20:35:32.060Z,29.65
2022-11-29T20:38:38.041Z,30.45
2022-11-29T20:42:04.102Z,22.30
2022-11-29T20:45:09.152Z,29.50
2022-11-29T20:48:21.707Z,28.08
2022-11-29T20:51:32.028Z,21.98
2022-11-29T20:54:34.874Z,30.87
2022-11-29T20:57:38.436Z,26.12
2022-11-29T21:00:40.909Z,20.20
2022-11-29T21:03:43.315Z,21.98
2022-11-29T21:06:45.691Z,31.52
2022-11-29T21:09:48.080Z,33.15
2022-11-29T21:12:50.818Z,31.30
2022-11-29T21:15:53.466Z,30.88
2022-11-29T21:19:01.562Z,20.00
2022-11-29T21:22:15.342Z,19.65
2022-11-29T21:25:25.851Z,18.73
2022-11-29T21:28:32.499Z,20.62
2022-11-29T21:31:35.120Z,18.52
2022-11-29T21:34:37.504Z,30.15
2022-11-29T21:37:40.027Z,35.28
2022-11-29T21:40:42.235Z,26.83
2022-11-29T21:44:05.573Z,23.55
2022-11-29T21:47:06.981Z,21.17
2022-11-29T21:50:09.571Z,31.17
2022-11-29T21:53:11.747Z,19.95
2022-11-29T21:56:14.175Z,21.95
2022-11-29T21:59:16.407Z,18.00
2022-11-29T22:02:19.008Z,17.80
2022-11-29T22:05:21.239Z,17.08
2022-11-29T22:08:23.431Z,23.00
2022-11-29T22:11:32.183Z,31.73
2022-11-29T22:14:34.958Z,31.70
2022-11-29T22:17:37.160Z,37.42
2022-11-29T22:20:39.310Z,30.88
2022-11-29T22:23:41.512Z,32.25
2022-11-29T22:26:43.894Z,24.37
2022-11-29T22:29:46.099Z,26.95
2022-11-29T22:32:48.266Z,28.80
2022-11-29T22:35:50.455Z,32.80
2022-11-29T22:38:52.730Z,25.85
2022-11-29T22:41:55.416Z,21.77
2022-11-29T22:44:57.693Z,21.98
2022-11-29T22:48:00.041Z,22.55
2022-11-29T22:51:07.191Z,17.77
2022-11-29T22:54:11.554Z,13.48
2022-11-29T22:57:13.783Z,15.10
2022-11-29T23:00:16.209Z,13.57
2022-11-29T23:03:18.424Z,20.08
2022-11-29T23:06:25.961Z,15.20
2022-11-29T23:09:28.143Z,12.88
2022-11-29T23:12:30.312Z,19.58
2022-11-29T23:15:32.556Z,16.87
2022-11-29T23:18:42.331Z,11.00
2022-11-29T23:21:45.493Z,15.07
2022-11-29T23:24:47.874Z,14.90
2022-11-29T23:27:50.745Z,16.02
2022-11-29T23:30:54.412Z,28.87
2022-11-29T23:33:56.606Z,21.48
2022-11-29T23:36:59.001Z,15.85
2022-11-29T23:40:01.174Z,11.02
2022-11-29T23:43:03.471Z,21.77
2022-11-29T23:46:24.294Z,12.88
2022-11-29T23:49:26.548Z,13.93
2022-11-29T23:52:28.728Z,10.20
2022-11-29T23:55:31.037Z,14.27
2022-11-29T23:58:34.651Z,20.75
